Time;durP1;ratioP1;P1;durP2;ratioP2;P2;SDS_P1;SDS_P2;PMS_P1;PMS_P2;Temp;Humidity;BMP_temperature;BMP_pressure;BME280_temperature;BME280_humidity;BME280_pressure;Samples;Min_cycle;Max_cycle;Signal;HPM_P1;HPM_P2
2022/12/04 00:01:35;;;;;;;72.20;19.40;;;;;;;-0.17;100.00;101840.84;5011830;28;20034;-77
2022/12/04 00:04:00;;;;;;;77.88;21.13;;;;;;;-0.18;100.00;101834.03;5022330;28;20117;-78
2022/12/04 00:06:26;;;;;;;72.13;19.13;;;;;;;-0.13;100.00;101831.63;5009799;28;20033;-77
2022/12/04 00:08:53;;;;;;;74.85;20.00;;;;;;;-0.17;100.00;101828.13;5013022;28;20042;-77
2022/12/04 00:11:21;;;;;;;77.15;20.48;;;;;;;-0.15;100.00;101833.28;4994699;28;20619;-77
2022/12/04 00:13:47;;;;;;;82.18;21.38;;;;;;;-0.17;100.00;101829.78;5012233;28;20104;-77
2022/12/04 00:16:19;;;;;;;72.07;20.27;;;;;;;-0.16;100.00;101819.66;5012654;28;20105;-77
2022/12/04 00:18:44;;;;;;;73.55;20.70;;;;;;;-0.15;100.00;101823.09;5008029;28;20522;-77
2022/12/04 00:21:11;;;;;;;81.43;21.80;;;;;;;-0.15;100.00;101823.09;5013836;28;20032;-77
2022/12/04 00:23:37;;;;;;;75.55;20.30;;;;;;;-0.17;100.00;101828.13;4994913;28;20492;-77
2022/12/04 00:26:08;;;;;;;80.97;21.33;;;;;;;-0.15;100.00;101820.53;5011833;28;20041;-77
2022/12/04 00:28:35;;;;;;;78.55;20.85;;;;;;;-0.14;100.00;101817.19;5010509;28;20034;-77
2022/12/04 00:31:07;;;;;;;65.72;18.90;;;;;;;-0.18;100.00;101818.72;5006554;28;20499;-77
2022/12/04 00:33:34;;;;;;;81.15;22.10;;;;;;;-0.17;100.00;101815.38;5015753;28;20095;-77
2022/12/04 00:36:01;;;;;;;76.07;20.67;;;;;;;-0.14;100.00;101809.53;5013458;28;20034;-77
2022/12/04 00:38:26;;;;;;;73.57;20.85;;;;;;;-0.17;100.00;101819.59;5012444;28;20049;-77
2022/12/04 00:40:52;;;;;;;71.65;21.10;;;;;;;-0.12;100.00;101815.53;5018847;28;20125;-77
2022/12/04 00:43:18;;;;;;;75.60;21.08;;;;;;;-0.14;100.00;101810.41;5015090;28;20048;-77
2022/12/04 00:45:43;;;;;;;68.55;19.63;;;;;;;-0.16;100.00;101812.03;5012604;28;20056;-77
2022/12/04 00:48:09;;;;;;;75.55;21.75;;;;;;;-0.19;100.00;101806.81;5012508;28;20033;-77
2022/12/04 00:50:35;;;;;;;69.82;21.48;;;;;;;-0.16;100.00;101801.84;5013584;28;20018;-77
2022/12/04 00:53:01;;;;;;;74.93;21.20;;;;;;;-0.17;100.00;101805.19;5015787;28;20112;-77
2022/12/04 00:55:26;;;;;;;81.38;23.92;;;;;;;-0.18;100.00;101808.53;5009739;28;20026;-77
2022/12/04 00:57:51;;;;;;;77.82;20.40;;;;;;;-0.13;100.00;101808.69;5009796;28;20026;-77
2022/12/04 01:00:17;;;;;;;74.03;21.63;;;;;;;-0.17;100.00;101810.28;5011809;28;20029;-77
2022/12/04 01:02:43;;;;;;;73.65;21.38;;;;;;;-0.20;100.00;101809.28;5010898;28;20017;-77
2022/12/04 01:05:08;;;;;;;71.90;21.13;;;;;;;-0.16;100.00;101816.25;5012404;28;20071;-77
2022/12/04 01:07:34;;;;;;;76.82;21.85;;;;;;;-0.18;100.00;101808.53;5013822;28;20411;-77
2022/12/04 01:09:59;;;;;;;77.35;21.95;;;;;;;-0.13;100.00;101821.44;5019113;28;20085;-77
2022/12/04 01:12:24;;;;;;;75.65;22.45;;;;;;;-0.16;100.00;101814.56;5012451;28;20049;-77
2022/12/04 01:14:50;;;;;;;73.78;20.42;;;;;;;-0.12;100.00;101812.97;5011249;28;20037;-77
2022/12/04 01:17:15;;;;;;;73.15;20.73;;;;;;;-0.12;100.00;101825.72;5012589;28;20072;-77
2022/12/04 01:19:42;;;;;;;75.78;22.27;;;;;;;-0.13;100.00;101821.44;4994547;28;20137;-77
2022/12/04 01:22:07;;;;;;;67.03;20.95;;;;;;;-0.11;100.00;101823.22;5009571;28;20113;-77
2022/12/04 01:24:32;;;;;;;73.75;21.88;;;;;;;-0.14;100.00;101819.72;4996470;28;20381;-77
2022/12/04 01:26:58;;;;;;;68.97;18.52;;;;;;;-0.11;100.00;101822.38;5012206;28;20406;-77
2022/12/04 01:29:23;;;;;;;74.43;21.70;;;;;;;-0.16;100.00;101817.13;5010990;28;20025;-77
2022/12/04 01:31:48;;;;;;;76.10;21.65;;;;;;;-0.17;100.00;101815.38;5011302;28;20499;-77
2022/12/04 01:34:13;;;;;;;72.18;20.15;;;;;;;-0.14;100.00;101825.69;5010783;28;20092;-77
2022/12/04 01:36:39;;;;;;;71.90;20.98;;;;;;;-0.14;100.00;101825.69;5009535;28;20315;-77
2022/12/04 01:39:04;;;;;;;74.60;21.73;;;;;;;-0.13;100.00;101826.53;5008340;28;20030;-77
2022/12/04 01:41:31;;;;;;;77.97;20.98;;;;;;;-0.10;100.00;101826.66;5006965;28;20022;-77
2022/12/04 01:44:20;;;;;;;74.20;21.13;;;;;;;-0.11;100.00;101822.38;5009966;28;20484;-77
2022/12/04 01:46:51;;;;;;;73.10;21.08;;;;;;;-0.11;100.00;101823.22;5009877;28;20034;-77
2022/12/04 01:49:24;;;;;;;71.50;21.33;;;;;;;-0.10;100.00;101819.88;5008523;28;20034;-77
2022/12/04 01:52:01;;;;;;;77.13;21.10;;;;;;;-0.13;100.00;101816.34;5008253;28;20022;-77
2022/12/04 01:54:36;;;;;;;67.43;19.95;;;;;;;-0.12;100.00;101811.31;5008336;28;20022;-77
2022/12/04 01:57:07;;;;;;;76.32;21.70;;;;;;;-0.15;100.00;101803.56;5010555;28;20037;-77
2022/12/04 01:59:41;;;;;;;79.55;23.58;;;;;;;-0.16;100.00;101806.94;5011011;28;20022;-77
2022/12/04 02:02:13;;;;;;;77.43;22.75;;;;;;;-0.14;100.00;101796.78;5006173;28;20036;-77
2022/12/04 02:04:40;;;;;;;67.82;19.45;;;;;;;-0.13;100.00;101801.91;5009319;28;20030;-77
2022/12/04 02:07:06;;;;;;;74.88;22.58;;;;;;;-0.16;100.00;101799.28;5010192;28;20026;-77
2022/12/04 02:09:33;;;;;;;72.88;21.33;;;;;;;-0.15;100.00;101803.56;5009638;28;20069;-78
2022/12/04 02:12:22;;;;;;;69.18;22.23;;;;;;;-0.16;100.00;101806.94;5006080;28;20038;-78
2022/12/04 02:15:03;;;;;;;71.60;20.73;;;;;;;-0.13;100.00;101809.56;5010134;28;20010;-78
2022/12/04 02:17:31;;;;;;;77.93;21.88;;;;;;;-0.12;100.00;101810.44;5009920;28;20041;-78
2022/12/04 02:20:05;;;;;;;70.07;20.17;;;;;;;-0.09;100.00;101810.56;5005051;28;20037;-78
2022/12/04 02:23:08;;;;;;;74.40;21.80;;;;;;;-0.11;100.00;101810.50;5002215;28;20034;-78
2022/12/04 02:25:55;;;;;;;74.57;22.83;;;;;;;-0.10;100.00;101812.22;5007762;28;20120;-78
2022/12/04 02:28:52;;;;;;;77.55;22.02;;;;;;;-0.12;100.00;101811.31;5009060;28;20076;-78
2022/12/04 02:31:21;;;;;;;75.28;21.52;;;;;;;-0.13;100.00;101801.91;5000448;28;20057;-78
2022/12/04 02:33:59;;;;;;;79.55;22.15;;;;;;;-0.14;100.00;101801.91;4992410;28;20087;-78
2022/12/04 02:36:30;;;;;;;77.28;21.58;;;;;;;-0.13;100.00;101803.59;5002852;28;20042;-78
2022/12/04 02:39:00;;;;;;;75.07;21.13;;;;;;;-0.13;100.00;101812.13;4993057;28;20033;-76
2022/12/04 02:41:33;;;;;;;76.95;21.95;;;;;;;-0.13;100.00;101798.50;5008202;28;20037;-77
2022/12/04 02:44:08;;;;;;;79.50;23.13;;;;;;;-0.12;100.00;101803.66;5006808;28;20069;-77
2022/12/04 02:46:37;;;;;;;76.07;23.60;;;;;;;-0.14;100.00;101807.00;5003236;28;20030;-76
2022/12/04 02:49:10;;;;;;;74.07;22.02;;;;;;;-0.10;100.00;101809.69;5001934;28;20033;-77
2022/12/04 02:51:39;;;;;;;82.80;24.33;;;;;;;-0.14;100.00;101805.31;5015668;28;20088;-77
2022/12/04 02:54:11;;;;;;;74.22;22.17;;;;;;;-0.13;100.00;101803.59;5008792;28;20105;-77
2022/12/04 02:56:41;;;;;;;74.75;24.02;;;;;;;-0.13;100.00;101795.94;5008649;28;20076;-76
2022/12/04 02:59:14;;;;;;;77.32;21.88;;;;;;;-0.13;100.00;101790.84;5006700;28;20033;-76
2022/12/04 03:01:44;;;;;;;82.97;23.20;;;;;;;-0.14;100.00;101777.28;5004973;28;20028;-76
2022/12/04 03:04:19;;;;;;;75.65;22.48;;;;;;;-0.11;100.00;101791.78;5007173;28;20464;-76
2022/12/04 03:06:49;;;;;;;73.95;21.73;;;;;;;-0.12;100.00;101778.19;5006113;28;20113;-76
2022/12/04 03:09:20;;;;;;;80.75;22.00;;;;;;;-0.12;100.00;101780.72;5006625;28;20443;-76
2022/12/04 03:11:55;;;;;;;79.85;21.25;;;;;;;-0.12;100.00;101778.19;4991954;28;20040;-76
2022/12/04 03:14:24;;;;;;;81.40;23.17;;;;;;;-0.12;100.00;101783.28;5007141;28;20109;-76
2022/12/04 03:16:54;;;;;;;75.88;21.85;;;;;;;-0.08;100.00;101784.25;5010513;28;20044;-76
2022/12/04 03:19:25;;;;;;;80.32;23.73;;;;;;;-0.12;100.00;101790.03;5008618;28;20057;-76
2022/12/04 03:21:57;;;;;;;79.72;23.52;;;;;;;-0.16;100.00;101778.91;5010514;28;20088;-76
2022/12/04 03:24:33;;;;;;;87.03;23.65;;;;;;;-0.07;100.00;101786.84;5007643;28;20034;-76
2022/12/04 03:27:09;;;;;;;76.85;23.67;;;;;;;-0.11;100.00;101789.25;5007077;28;20056;-76
2022/12/04 03:29:56;;;;;;;72.90;21.23;;;;;;;-0.13;100.00;101780.66;5008903;28;20037;-76
2022/12/04 03:32:35;;;;;;;79.22;22.80;;;;;;;-0.14;100.00;101784.94;5006491;28;20030;-76
2022/12/04 03:35:03;;;;;;;78.40;21.60;;;;;;;-0.14;100.00;101784.94;5007520;28;20022;-76
2022/12/04 03:37:40;;;;;;;84.25;23.13;;;;;;;-0.13;100.00;101785.75;5005684;28;20036;-76
2022/12/04 03:40:18;;;;;;;82.93;23.83;;;;;;;-0.15;100.00;101783.19;5001329;28;20075;-76
2022/12/04 03:42:55;;;;;;;76.90;22.30;;;;;;;-0.12;100.00;101783.28;5008622;28;20033;-76
2022/12/04 03:45:23;;;;;;;77.40;22.70;;;;;;;-0.12;100.00;101778.19;5003528;28;20030;-76
2022/12/04 03:48:05;;;;;;;80.45;22.13;;;;;;;-0.12;100.00;101777.31;5005642;28;20109;-76
2022/12/04 03:50:38;;;;;;;68.82;20.65;;;;;;;-0.14;100.00;101777.28;5005884;28;20018;-76
2022/12/04 03:53:32;;;;;;;79.40;22.48;;;;;;;-0.11;100.00;101773.94;5005449;28;20131;-77
2022/12/04 03:56:05;;;;;;;65.03;18.98;;;;;;;-0.14;100.00;101773.88;5001612;28;20054;-77
2022/12/04 03:58:33;;;;;;;78.60;23.15;;;;;;;-0.15;100.00;101779.78;5007789;28;20384;-77
2022/12/04 04:01:02;;;;;;;76.70;23.02;;;;;;;-0.17;100.00;101768.66;5004736;28;20038;-77
2022/12/04 04:03:35;;;;;;;76.47;22.65;;;;;;;-0.16;100.00;101770.38;5006603;28;20034;-77
2022/12/04 04:06:08;;;;;;;76.93;22.85;;;;;;;-0.12;100.00;101779.84;4989364;28;20535;-76
2022/12/04 04:08:37;;;;;;;79.57;23.48;;;;;;;-0.12;100.00;101773.09;5006687;28;20034;-78
2022/12/04 04:11:12;;;;;;;71.70;21.85;;;;;;;-0.12;100.00;101770.53;5008246;28;20053;-78
2022/12/04 04:25:12;;;;;;;83.50;23.00;;;;;;;-0.12;100.00;101767.13;5009506;28;20049;-78
2022/12/04 04:27:37;;;;;;;81.47;23.05;;;;;;;-0.16;100.00;101768.72;5007575;28;20033;-78
2022/12/04 04:30:04;;;;;;;76.95;22.25;;;;;;;-0.15;100.00;101767.91;5007354;28;20040;-79
2022/12/04 04:32:39;;;;;;;78.60;23.13;;;;;;;-0.14;100.00;101774.75;5011571;28;20076;-78
2022/12/04 04:35:08;;;;;;;83.35;23.20;;;;;;;-0.12;100.00;101768.00;5009284;28;20025;-78
2022/12/04 04:37:36;;;;;;;75.25;22.45;;;;;;;-0.11;100.00;101766.31;5011791;28;20436;-78
2022/12/04 04:40:19;;;;;;;77.32;21.95;;;;;;;-0.11;100.00;101757.00;5009575;28;20515;-77
2022/12/04 04:42:57;;;;;;;55.22;17.60;;;;;;;-0.10;100.00;101766.38;5008759;28;20515;-77
2022/12/04 04:46:04;;;;;;;75.32;21.95;;;;;;;-0.08;100.00;101774.06;4993301;28;20053;-77
2022/12/04 04:48:40;;;;;;;80.82;22.35;;;;;;;-0.09;100.00;101772.34;4994368;28;20045;-77
2022/12/04 04:51:05;;;;;;;74.55;22.17;;;;;;;-0.09;100.00;101769.78;4991282;28;20033;-76
2022/12/04 04:53:38;;;;;;;70.45;21.17;;;;;;;-0.04;100.00;101776.78;4993894;28;20463;-77
2022/12/04 04:56:05;;;;;;;75.90;23.33;;;;;;;-0.08;100.00;101774.06;4994866;28;20069;-77
2022/12/04 04:58:30;;;;;;;76.57;22.67;;;;;;;-0.08;100.00;101769.84;5009088;28;20184;-76
2022/12/04 05:01:02;;;;;;;71.78;22.55;;;;;;;-0.06;100.00;101767.31;5008523;28;20528;-76
2022/12/04 05:03:28;;;;;;;80.43;23.05;;;;;;;-0.05;100.00;101767.38;5011271;28;20029;-76
2022/12/04 05:05:54;;;;;;;80.32;21.95;;;;;;;-0.08;100.00;101771.53;5011538;28;20103;-76
2022/12/04 05:08:20;;;;;;;79.65;21.35;;;;;;;-0.05;100.00;101774.16;4993875;28;20381;-77
2022/12/04 05:10:46;;;;;;;76.03;23.15;;;;;;;-0.08;100.00;101768.97;5010498;28;20459;-77
2022/12/04 05:13:12;;;;;;;75.72;22.13;;;;;;;-0.11;100.00;101768.84;5008679;28;20026;-76
2022/12/04 05:15:38;;;;;;;78.03;22.52;;;;;;;-0.07;100.00;101773.25;5011468;28;20084;-76
2022/12/04 05:18:04;;;;;;;74.78;22.48;;;;;;;-0.07;100.00;101770.72;4990372;28;20022;-76
2022/12/04 05:20:30;;;;;;;79.93;21.35;;;;;;;-0.07;100.00;101768.16;4997209;28;20056;-76
2022/12/04 05:22:55;;;;;;;75.45;21.52;;;;;;;-0.08;100.00;101774.06;5011043;28;20037;-77
2022/12/04 05:25:20;;;;;;;73.15;20.42;;;;;;;-0.05;100.00;101776.72;5012507;28;20240;-77
2022/12/04 05:27:46;;;;;;;81.30;23.95;;;;;;;-0.04;100.00;101775.91;5010302;28;20032;-77
2022/12/04 05:30:11;;;;;;;82.10;24.40;;;;;;;-0.05;100.00;101777.56;5008654;28;20407;-77
2022/12/04 05:32:37;;;;;;;82.22;23.70;;;;;;;-0.06;100.00;101769.88;5009720;28;20498;-77
2022/12/04 05:35:03;;;;;;;74.97;21.92;;;;;;;-0.03;100.00;101777.63;4998122;28;20034;-77
2022/12/04 05:37:28;;;;;;;75.18;21.58;;;;;;;-0.07;100.00;101766.47;5008803;28;20068;-77
2022/12/04 05:39:53;;;;;;;76.53;22.40;;;;;;;-0.04;100.00;101771.66;5008923;28;20033;-77
2022/12/04 05:42:19;;;;;;;82.10;23.17;;;;;;;-0.03;100.00;101773.41;5008544;28;20088;-77
2022/12/04 05:44:44;;;;;;;69.82;20.15;;;;;;;-0.04;100.00;101766.56;5008617;28;20125;-77
2022/12/04 05:47:09;;;;;;;82.50;22.25;;;;;;;-0.03;100.00;101770.00;5001714;28;20026;-77
2022/12/04 05:49:35;;;;;;;78.28;23.33;;;;;;;0.02;100.00;101771.00;5008390;28;20030;-77
2022/12/04 05:52:04;;;;;;;73.90;20.98;;;;;;;0.02;100.00;101776.09;4991372;28;20036;-77
2022/12/04 05:54:29;;;;;;;66.85;19.70;;;;;;;-0.01;100.00;101769.25;5011083;28;20033;-77
2022/12/04 05:56:54;;;;;;;77.25;23.38;;;;;;;-0.04;100.00;101760.59;5009474;28;20440;-77
2022/12/04 05:59:20;;;;;;;74.72;21.83;;;;;;;-0.02;100.00;101762.41;5007800;28;20037;-77
2022/12/04 06:01:45;;;;;;;80.32;23.23;;;;;;;-0.03;100.00;101758.13;5013524;28;20060;-77
2022/12/04 06:04:11;;;;;;;83.53;22.58;;;;;;;-0.01;100.00;101758.19;4997084;28;20029;-77
2022/12/04 06:06:37;;;;;;;71.57;21.38;;;;;;;0.01;100.00;101759.06;5011653;28;20026;-77
2022/12/04 06:09:03;;;;;;;75.45;22.90;;;;;;;0.03;100.00;101751.50;5007137;28;20065;-77
2022/12/04 06:11:31;;;;;;;83.95;24.98;;;;;;;0.00;100.00;101749.72;4991184;28;20048;-77
2022/12/04 06:13:59;;;;;;;76.05;22.90;;;;;;;-0.01;100.00;101748.84;5007668;28;20040;-77
2022/12/04 06:16:27;;;;;;;79.57;22.40;;;;;;;0.00;100.00;101758.19;5019981;28;20036;-77
2022/12/04 06:18:55;;;;;;;76.00;23.73;;;;;;;-0.02;100.00;101751.34;5002739;28;20034;-77
2022/12/04 06:21:21;;;;;;;84.50;23.38;;;;;;;-0.08;100.00;101744.38;5001082;28;20453;-77
2022/12/04 06:23:47;;;;;;;79.68;23.67;;;;;;;-0.06;100.00;101754.59;5010102;28;20038;-77
2022/12/04 06:26:13;;;;;;;77.40;21.77;;;;;;;-0.03;100.00;101753.03;5002336;28;20037;-77
2022/12/04 06:28:38;;;;;;;80.10;22.63;;;;;;;-0.01;100.00;101753.09;5010434;28;20061;-77
2022/12/04 06:31:08;;;;;;;72.78;20.65;;;;;;;-0.03;100.00;101760.66;5008375;28;20566;-77
2022/12/04 06:33:34;;;;;;;74.60;21.88;;;;;;;-0.03;100.00;101759.81;5006064;28;20053;-77
2022/12/04 06:36:04;;;;;;;77.90;22.48;;;;;;;-0.04;100.00;101760.59;5010610;28;20018;-77
2022/12/04 06:38:30;;;;;;;81.18;22.58;;;;;;;0.01;100.00;101756.53;5008037;28;20149;-77
2022/12/04 06:40:56;;;;;;;72.53;21.08;;;;;;;-0.03;100.00;101758.13;5008926;28;20492;-76
2022/12/04 06:43:22;;;;;;;70.88;22.27;;;;;;;-0.02;100.00;101764.97;5008526;28;20036;-76
2022/12/04 06:45:48;;;;;;;76.63;22.02;;;;;;;0.04;100.00;101764.28;5009813;28;20033;-77
2022/12/04 06:48:13;;;;;;;75.68;21.90;;;;;;;0.05;100.00;101760.06;5005650;28;20029;-77
2022/12/04 06:50:39;;;;;;;67.78;20.80;;;;;;;0.03;100.00;101765.09;5006964;28;20531;-77
2022/12/04 06:53:04;;;;;;;73.20;21.73;;;;;;;0.00;100.00;101757.38;5014678;28;20124;-77
2022/12/04 06:55:30;;;;;;;68.70;20.48;;;;;;;0.03;100.00;101770.19;5016763;28;20079;-76
2022/12/04 06:57:55;;;;;;;64.75;19.40;;;;;;;0.02;100.00;101777.78;5007235;28;20420;-76
2022/12/04 07:00:20;;;;;;;68.80;21.98;;;;;;;0.05;100.00;101775.34;5009248;28;20064;-76
2022/12/04 07:02:46;;;;;;;67.78;21.85;;;;;;;0.00;100.00;101768.41;4999655;28;20038;-76
2022/12/04 07:05:11;;;;;;;70.40;21.80;;;;;;;0.01;100.00;101766.72;5009928;28;20029;-76
2022/12/04 07:07:36;;;;;;;66.28;20.27;;;;;;;0.02;100.00;101775.22;5007712;28;20120;-76
2022/12/04 07:10:03;;;;;;;67.38;20.90;;;;;;;0.01;100.00;101782.00;5009413;28;20050;-77
2022/12/04 07:12:28;;;;;;;68.20;19.73;;;;;;;0.01;100.00;101776.91;5006539;28;20392;-77
2022/12/04 07:14:53;;;;;;;62.85;20.13;;;;;;;0.01;100.00;101782.00;5012671;28;20537;-76
2022/12/04 07:17:19;;;;;;;71.57;21.77;;;;;;;0.04;100.00;101791.47;5020133;28;20111;-76
2022/12/04 07:19:44;;;;;;;68.90;21.08;;;;;;;0.00;100.00;101786.25;5008742;28;20034;-76
2022/12/04 07:22:09;;;;;;;70.18;22.40;;;;;;;-0.03;100.00;101793.78;5008833;28;20033;-76
2022/12/04 07:24:36;;;;;;;68.07;20.50;;;;;;;0.00;100.00;101795.59;5009488;28;20030;-76
2022/12/04 07:27:02;;;;;;;51.55;16.33;;;;;;;0.05;100.00;101803.38;4992603;28;20033;-76
2022/12/04 07:29:27;;;;;;;64.78;19.55;;;;;;;0.03;100.00;101805.00;5008951;28;20034;-76
2022/12/04 07:31:53;;;;;;;62.58;20.30;;;;;;;0.05;100.00;101805.94;5008056;28;20026;-76
2022/12/04 07:34:18;;;;;;;61.05;19.67;;;;;;;0.05;100.00;101806.81;5004777;28;20472;-76
2022/12/04 07:36:43;;;;;;;52.55;16.95;;;;;;;0.06;100.00;101806.00;5013899;28;20033;-76
2022/12/04 07:39:09;;;;;;;53.85;15.50;;;;;;;0.07;100.00;101805.16;5005907;28;20069;-78
2022/12/04 07:41:34;;;;;;;61.67;19.17;;;;;;;0.07;100.00;101800.06;5002117;28;20030;-78
2022/12/04 07:44:00;;;;;;;68.13;19.67;;;;;;;0.07;100.00;101809.41;5007864;28;20042;-78
2022/12/04 07:46:26;;;;;;;59.28;19.17;;;;;;;0.09;100.00;101790.78;5006619;28;21343;-78
2022/12/04 07:48:54;;;;;;;66.25;20.77;;;;;;;0.07;100.00;101789.03;4989798;28;20116;-78
2022/12/04 07:51:22;;;;;;;63.63;19.30;;;;;;;0.07;100.00;101800.06;5008908;28;20018;-78
2022/12/04 07:53:49;;;;;;;64.03;19.77;;;;;;;0.07;100.00;101805.16;5008904;28;20041;-78
2022/12/04 07:56:15;;;;;;;55.33;17.30;;;;;;;0.09;100.00;101811.19;5012066;28;20030;-79
2022/12/04 07:58:41;;;;;;;57.65;16.70;;;;;;;0.16;100.00;101805.47;5012444;28;20543;-79
2022/12/04 08:01:20;;;;;;;52.45;16.75;;;;;;;0.13;100.00;101807.06;5007700;28;20038;-78
2022/12/04 08:03:48;;;;;;;60.60;18.48;;;;;;;0.12;100.00;101815.53;5008109;28;20017;-78
2022/12/04 08:06:13;;;;;;;54.08;18.52;;;;;;;0.12;100.00;101808.75;5010091;28;20030;-78
2022/12/04 08:08:39;;;;;;;61.72;19.60;;;;;;;0.15;100.00;101811.38;5006886;28;20026;-77
2022/12/04 08:11:06;;;;;;;57.90;18.02;;;;;;;0.16;100.00;101804.59;5004075;28;20050;-76
2022/12/04 08:13:31;;;;;;;61.20;18.40;;;;;;;0.20;100.00;101814.97;5006460;28;20028;-76
2022/12/04 08:16:00;;;;;;;54.67;17.73;;;;;;;0.23;100.00;101821.84;5010094;28;20026;-77
2022/12/04 08:18:26;;;;;;;56.28;18.55;;;;;;;0.23;100.00;101816.75;5012603;28;20069;-77
2022/12/04 08:20:51;;;;;;;58.22;18.05;;;;;;;0.26;100.00;101817.72;5012918;28;20057;-76
2022/12/04 08:23:17;;;;;;;56.00;17.88;;;;;;;0.28;100.00;101813.53;4995797;28;20022;-76
2022/12/04 08:25:42;;;;;;;51.70;17.52;;;;;;;0.29;100.00;101816.94;5007302;28;20029;-76
2022/12/04 08:28:07;;;;;;;55.42;17.33;;;;;;;0.32;100.00;101820.47;5011435;28;20029;-76
2022/12/04 08:30:34;;;;;;;56.75;17.90;;;;;;;0.31;100.00;101828.06;5012791;28;20026;-76
2022/12/04 08:33:01;;;;;;;53.60;16.70;;;;;;;0.29;100.00;101822.03;4992096;28;20201;-76
2022/12/04 08:35:27;;;;;;;59.45;18.92;;;;;;;0.31;100.00;101823.84;5011178;28;20026;-76
2022/12/04 08:37:53;;;;;;;59.88;18.90;;;;;;;0.30;100.00;101821.25;5011734;28;20084;-76
2022/12/04 08:40:18;;;;;;;58.05;18.80;;;;;;;0.37;100.00;101825.72;5001805;28;20639;-76
2022/12/04 08:42:44;;;;;;;63.10;19.45;;;;;;;0.39;100.00;101819.00;5007078;28;20033;-76
2022/12/04 08:45:09;;;;;;;58.63;18.30;;;;;;;0.40;100.00;101815.66;4993523;28;20412;-77
2022/12/04 08:47:35;;;;;;;62.80;19.73;;;;;;;0.43;100.00;101820.81;4993869;28;20499;-76
2022/12/04 08:50:00;;;;;;;58.95;17.80;;;;;;;0.45;100.00;101814.09;4993834;28;20034;-77
2022/12/04 08:52:25;;;;;;;53.42;17.98;;;;;;;0.48;100.00;101814.19;4994107;28;20030;-76
2022/12/04 08:54:51;;;;;;;55.13;18.77;;;;;;;0.51;100.00;101806.66;5010596;28;20264;-77
2022/12/04 08:57:16;;;;;;;54.42;17.10;;;;;;;0.53;100.00;101802.47;5008354;28;20485;-77
2022/12/04 08:59:41;;;;;;;62.28;19.27;;;;;;;0.54;100.00;101808.44;5011676;28;20037;-77
2022/12/04 09:02:09;;;;;;;50.67;17.25;;;;;;;0.55;100.00;101811.00;5010302;28;20539;-77
2022/12/04 09:04:35;;;;;;;60.65;18.58;;;;;;;0.56;100.00;101805.09;5012427;28;20030;-77
2022/12/04 09:07:00;;;;;;;55.08;18.55;;;;;;;0.61;100.00;101805.28;5007969;28;20041;-77
2022/12/04 09:09:25;;;;;;;48.08;15.93;;;;;;;0.64;100.00;101805.34;5010412;28;20381;-77
2022/12/04 09:11:51;;;;;;;55.47;18.17;;;;;;;0.65;100.00;101810.50;5009989;28;20038;-76
2022/12/04 09:14:18;;;;;;;53.65;17.58;;;;;;;0.68;100.00;101807.19;4987804;28;20037;-76
2022/12/04 09:16:43;;;;;;;50.13;15.90;;;;;;;0.73;100.00;101809.06;5006797;28;20021;-76
2022/12/04 09:19:09;;;;;;;43.38;13.52;;;;;;;0.76;100.00;101815.94;5005823;28;20028;-76
2022/12/04 09:21:35;;;;;;;54.15;16.88;;;;;;;0.73;100.00;101809.06;4991813;28;20026;-75
2022/12/04 09:24:01;;;;;;;50.28;16.13;;;;;;;0.69;100.00;101821.66;5006119;28;20037;-75
2022/12/04 09:26:29;;;;;;;50.80;16.83;;;;;;;0.70;100.00;101823.41;5009481;28;20032;-75
2022/12/04 09:28:58;;;;;;;48.75;17.10;;;;;;;0.65;100.00;101818.16;5009752;28;20036;-75
2022/12/04 09:31:23;;;;;;;46.47;15.07;;;;;;;0.66;100.00;101826.69;5012044;28;20021;-75
2022/12/04 09:33:49;;;;;;;44.83;14.98;;;;;;;0.67;99.54;101824.19;5011274;28;20021;-75
2022/12/04 09:36:15;;;;;;;45.60;15.20;;;;;;;0.62;99.26;101824.84;5011487;28;20045;-74
2022/12/04 09:38:48;;;;;;;41.88;15.35;;;;;;;0.62;98.89;101828.25;5011206;28;20026;-74
2022/12/04 09:41:22;;;;;;;38.20;12.82;;;;;;;0.61;98.85;101826.56;5006494;28;20119;-75
2022/12/04 09:43:57;;;;;;;38.45;13.85;;;;;;;0.56;99.34;101828.06;5009810;28;20030;-74
2022/12/04 09:46:34;;;;;;;40.45;13.68;;;;;;;0.55;99.24;101826.31;5009673;28;20046;-74
2022/12/04 09:49:05;;;;;;;44.95;14.43;;;;;;;0.57;99.39;101828.94;5011143;28;20030;-76
2022/12/04 09:51:34;;;;;;;45.42;14.55;;;;;;;0.61;99.54;101823.13;5011437;28;20033;-77
2022/12/04 09:54:06;;;;;;;35.70;13.07;;;;;;;0.58;99.66;101817.91;5008829;28;20499;-77
2022/12/04 09:56:32;;;;;;;42.45;15.05;;;;;;;0.58;99.54;101828.97;5009049;28;20435;-77
2022/12/04 09:59:05;;;;;;;43.88;15.20;;;;;;;0.60;100.00;101818.84;5012092;28;20022;-77
2022/12/04 10:01:46;;;;;;;40.00;14.05;;;;;;;0.63;100.00;101822.34;5010399;28;20026;-76
2022/12/04 10:04:12;;;;;;;42.85;14.82;;;;;;;0.62;99.75;101818.06;5006462;28;20496;-77
2022/12/04 10:07:01;;;;;;;38.63;13.63;;;;;;;0.63;99.64;101821.47;5007829;28;20034;-77
2022/12/04 10:09:49;;;;;;;38.58;13.20;;;;;;;0.64;99.31;101821.53;4999812;28;20093;-76
2022/12/04 10:12:44;;;;;;;42.17;14.63;;;;;;;0.59;99.78;101812.88;5008532;28;20033;-77
2022/12/04 10:15:43;;;;;;;41.80;14.75;;;;;;;0.66;99.12;101825.00;5009655;28;20307;-76
2022/12/04 10:18:52;;;;;;;43.28;14.10;;;;;;;0.60;99.35;101822.25;5009359;28;20041;-76
2022/12/04 10:21:36;;;;;;;45.67;16.08;;;;;;;0.60;99.90;101818.84;4921893;29;20036;-74
2022/12/04 10:24:04;;;;;;;48.47;16.05;;;;;;;0.64;100.00;101823.22;4928761;29;20039;-74
2022/12/04 10:26:40;;;;;;;44.70;15.00;;;;;;;0.63;99.91;101827.44;4974015;28;20036;-74
2022/12/04 10:29:07;;;;;;;44.63;16.00;;;;;;;0.65;99.90;101812.19;5009041;28;20029;-74
2022/12/04 10:31:36;;;;;;;44.05;15.35;;;;;;;0.68;99.92;101822.50;4990938;28;20033;-75
2022/12/04 10:34:15;;;;;;;41.20;15.20;;;;;;;0.69;99.92;101824.22;4994133;28;20271;-74
2022/12/04 10:36:47;;;;;;;39.78;15.02;;;;;;;0.67;99.67;101824.19;5008450;28;20084;-74
2022/12/04 10:39:24;;;;;;;45.45;15.95;;;;;;;0.67;99.10;101825.88;5008129;28;20034;-74
2022/12/04 10:41:57;;;;;;;41.25;14.32;;;;;;;0.66;99.26;101824.13;4988611;28;20033;-74
2022/12/04 10:44:23;;;;;;;42.17;15.13;;;;;;;0.61;99.93;101821.44;5005971;28;20034;-74
2022/12/04 10:46:52;;;;;;;44.10;15.15;;;;;;;0.62;99.83;101822.28;5007276;28;20060;-74
2022/12/04 10:49:23;;;;;;;43.40;14.57;;;;;;;0.61;100.00;101816.34;5007329;28;20029;-76
2022/12/04 10:51:49;;;;;;;44.22;15.55;;;;;;;0.65;99.84;101820.72;5008312;28;20038;-76
2022/12/04 10:54:24;;;;;;;45.10;16.10;;;;;;;0.69;100.00;101825.09;4989799;28;20028;-77
2022/12/04 10:56:58;;;;;;;40.13;14.85;;;;;;;0.72;99.89;101825.19;4992796;28;20227;-77
2022/12/04 10:59:24;;;;;;;40.03;14.52;;;;;;;0.74;99.87;101817.59;5017976;28;20036;-76
2022/12/04 11:01:57;;;;;;;42.20;15.00;;;;;;;0.76;100.00;101821.03;5010850;28;20029;-76
2022/12/04 11:04:25;;;;;;;42.83;15.43;;;;;;;0.76;100.00;101813.38;4993174;28;20025;-77
2022/12/04 11:07:02;;;;;;;44.45;15.07;;;;;;;0.77;99.96;101803.25;5006013;28;20026;-76
2022/12/04 11:09:28;;;;;;;42.15;15.88;;;;;;;0.77;100.00;101802.38;5003669;28;20041;-77
2022/12/04 11:12:05;;;;;;;44.58;15.95;;;;;;;0.76;99.99;101793.84;5009601;28;20038;-77
2022/12/04 11:14:30;;;;;;;36.10;13.57;;;;;;;0.75;99.82;101789.56;4989057;28;20539;-76
2022/12/04 11:17:05;;;;;;;45.88;15.98;;;;;;;0.72;100.00;101794.59;5008098;28;20021;-77
2022/12/04 11:19:35;;;;;;;43.15;15.23;;;;;;;0.71;99.78;101792.84;5008749;28;20960;-76
2022/12/04 11:22:11;;;;;;;43.97;15.90;;;;;;;0.70;99.92;101791.09;4991246;28;20028;-77
2022/12/04 11:24:39;;;;;;;41.30;14.55;;;;;;;0.71;99.88;101785.19;5007825;28;20515;-77
2022/12/04 11:27:06;;;;;;;36.38;14.85;;;;;;;0.70;99.96;101770.69;5008143;28;20400;-77
2022/12/04 11:29:41;;;;;;;43.92;16.05;;;;;;;0.74;100.00;101781.88;5007489;28;20188;-77